sensor_id;sensor_type;location;lat;lon;timestamp;P1;durP1;ratioP1;P2;durP2;ratioP2
68319;SDS011;55168;51.120;17.024;2023-04-03T00:00:00;6.8;;;4.9;;
68319;SDS011;55168;51.120;17.024;2023-04-03T00:01:00;6.8;;;4.9;;
68319;SDS011;55168;51.120;17.024;2023-04-03T00:02:00;8.9;;;5.1;;
68319;SDS011;55168;51.120;17.024;2023-04-03T00:03:00;8.9;;;5.1;;
68319;SDS011;55168;51.120;17.024;2023-04-03T00:04:00;8.9;;;5.1;;
68319;SDS011;55168;51.120;17.024;2023-04-03T00:05:00;8.9;;;5.1;;
68319;SDS011;55168;51.120;17.024;2023-04-03T00:06:00;8.9;;;5.1;;
68319;SDS011;55168;51.120;17.024;2023-04-03T00:07:00;7.2;;;4.7;;
68319;SDS011;55168;51.120;17.024;2023-04-03T00:08:00;7.2;;;4.7;;
68319;SDS011;55168;51.120;17.024;2023-04-03T00:09:00;7.2;;;4.7;;
68319;SDS011;55168;51.120;17.024;2023-04-03T00:10:00;7.2;;;4.7;;
68319;SDS011;55168;51.120;17.024;2023-04-03T00:11:01;7.2;;;4.7;;
68319;SDS011;55168;51.120;17.024;2023-04-03T00:12:00;5.7;;;4.7;;
68319;SDS011;55168;51.120;17.024;2023-04-03T00:13:00;5.7;;;4.7;;
68319;SDS011;55168;51.120;17.024;2023-04-03T00:14:00;5.7;;;4.7;;
68319;SDS011;55168;51.120;17.024;2023-04-03T00:15:00;5.7;;;4.7;;
68319;SDS011;55168;51.120;17.024;2023-04-03T00:16:00;5.7;;;4.7;;
68319;SDS011;55168;51.120;17.024;2023-04-03T00:17:00;8.3;;;4.8;;
68319;SDS011;55168;51.120;17.024;2023-04-03T00:18:00;8.3;;;4.8;;
68319;SDS011;55168;51.120;17.024;2023-04-03T00:19:00;8.3;;;4.8;;
68319;SDS011;55168;51.120;17.024;2023-04-03T00:20:00;8.3;;;4.8;;
68319;SDS011;55168;51.120;17.024;2023-04-03T00:21:00;8.3;;;4.8;;
68319;SDS011;55168;51.120;17.024;2023-04-03T00:22:00;6.7;;;4.5;;
68319;SDS011;55168;51.120;17.024;2023-04-03T00:23:01;6.7;;;4.5;;
68319;SDS011;55168;51.120;17.024;2023-04-03T00:24:00;6.7;;;4.5;;
68319;SDS011;55168;51.120;17.024;2023-04-03T00:25:00;6.7;;;4.5;;
68319;SDS011;55168;51.120;17.024;2023-04-03T00:26:00;6.7;;;4.5;;
68319;SDS011;55168;51.120;17.024;2023-04-03T00:27:00;7.1;;;4.9;;
68319;SDS011;55168;51.120;17.024;2023-04-03T00:28:00;7.1;;;4.9;;
68319;SDS011;55168;51.120;17.024;2023-04-03T00:29:00;7.1;;;4.9;;
68319;SDS011;55168;51.120;17.024;2023-04-03T00:30:00;7.1;;;4.9;;
68319;SDS011;55168;51.120;17.024;2023-04-03T00:31:00;7.1;;;4.9;;
68319;SDS011;55168;51.120;17.024;2023-04-03T00:32:00;6.2;;;4.7;;
68319;SDS011;55168;51.120;17.024;2023-04-03T00:33:00;6.2;;;4.7;;
68319;SDS011;55168;51.120;17.024;2023-04-03T00:34:00;6.2;;;4.7;;
68319;SDS011;55168;51.120;17.024;2023-04-03T00:35:00;6.2;;;4.7;;
68319;SDS011;55168;51.120;17.024;2023-04-03T00:36:06;6.2;;;4.7;;
68319;SDS011;55168;51.120;17.024;2023-04-03T00:37:00;7.9;;;4.9;;
68319;SDS011;55168;51.120;17.024;2023-04-03T00:38:00;7.9;;;4.9;;
68319;SDS011;55168;51.120;17.024;2023-04-03T00:39:00;7.9;;;4.9;;
68319;SDS011;55168;51.120;17.024;2023-04-03T00:40:00;7.9;;;4.9;;
68319;SDS011;55168;51.120;17.024;2023-04-03T00:41:00;7.9;;;4.9;;
68319;SDS011;55168;51.120;17.024;2023-04-03T00:42:00;8.6;;;4.8;;
68319;SDS011;55168;51.120;17.024;2023-04-03T00:43:00;8.6;;;4.8;;
68319;SDS011;55168;51.120;17.024;2023-04-03T00:44:00;8.6;;;4.8;;
68319;SDS011;55168;51.120;17.024;2023-04-03T00:46:00;8.6;;;4.8;;
68319;SDS011;55168;51.120;17.024;2023-04-03T00:47:02;8.2;;;4.7;;
68319;SDS011;55168;51.120;17.024;2023-04-03T00:48:03;8.2;;;4.7;;
68319;SDS011;55168;51.120;17.024;2023-04-03T00:49:00;8.2;;;4.7;;
68319;SDS011;55168;51.120;17.024;2023-04-03T00:50:00;8.2;;;4.7;;
68319;SDS011;55168;51.120;17.024;2023-04-03T00:51:01;8.2;;;4.7;;
68319;SDS011;55168;51.120;17.024;2023-04-03T00:52:00;9.0;;;4.8;;
68319;SDS011;55168;51.120;17.024;2023-04-03T00:53:00;9.0;;;4.8;;
68319;SDS011;55168;51.120;17.024;2023-04-03T00:54:02;9.0;;;4.8;;
68319;SDS011;55168;51.120;17.024;2023-04-03T00:55:04;9.0;;;4.8;;
68319;SDS011;55168;51.120;17.024;2023-04-03T00:56:00;9.0;;;4.8;;
68319;SDS011;55168;51.120;17.024;2023-04-03T00:57:00;8.9;;;4.8;;
68319;SDS011;55168;51.120;17.024;2023-04-03T00:58:01;8.9;;;4.8;;
68319;SDS011;55168;51.120;17.024;2023-04-03T00:59:04;8.9;;;4.8;;
68319;SDS011;55168;51.120;17.024;2023-04-03T01:00:07;8.9;;;4.8;;
68319;SDS011;55168;51.120;17.024;2023-04-03T01:01:05;8.9;;;4.8;;
68319;SDS011;55168;51.120;17.024;2023-04-03T01:02:00;7.9;;;4.5;;
68319;SDS011;55168;51.120;17.024;2023-04-03T01:03:00;7.9;;;4.5;;
68319;SDS011;55168;51.120;17.024;2023-04-03T01:04:00;7.9;;;4.5;;
68319;SDS011;55168;51.120;17.024;2023-04-03T01:05:00;7.9;;;4.5;;
68319;SDS011;55168;51.120;17.024;2023-04-03T01:06:00;7.9;;;4.5;;
68319;SDS011;55168;51.120;17.024;2023-04-03T01:07:03;7.1;;;4.6;;
68319;SDS011;55168;51.120;17.024;2023-04-03T01:08:00;7.1;;;4.6;;
68319;SDS011;55168;51.120;17.024;2023-04-03T01:09:00;7.1;;;4.6;;
68319;SDS011;55168;51.120;17.024;2023-04-03T01:10:03;7.1;;;4.6;;
68319;SDS011;55168;51.120;17.024;2023-04-03T01:11:00;7.1;;;4.6;;
68319;SDS011;55168;51.120;17.024;2023-04-03T01:13:00;10.5;;;5.1;;
68319;SDS011;55168;51.120;17.024;2023-04-03T01:14:00;10.5;;;5.1;;
68319;SDS011;55168;51.120;17.024;2023-04-03T01:15:04;10.5;;;5.1;;
68319;SDS011;55168;51.120;17.024;2023-04-03T01:16:01;10.5;;;5.1;;
68319;SDS011;55168;51.120;17.024;2023-04-03T01:17:00;8.4;;;5.0;;
68319;SDS011;55168;51.120;17.024;2023-04-03T01:18:00;8.4;;;5.0;;
68319;SDS011;55168;51.120;17.024;2023-04-03T01:19:01;8.4;;;5.0;;
68319;SDS011;55168;51.120;17.024;2023-04-03T01:22:06;7.5;;;5.0;;
68319;SDS011;55168;51.120;17.024;2023-04-03T01:25:00;7.5;;;5.0;;
68319;SDS011;55168;51.120;17.024;2023-04-03T01:26:00;7.5;;;5.0;;
68319;SDS011;55168;51.120;17.024;2023-04-03T01:27:03;6.9;;;4.9;;
68319;SDS011;55168;51.120;17.024;2023-04-03T01:28:00;6.9;;;4.9;;
68319;SDS011;55168;51.120;17.024;2023-04-03T01:29:00;6.9;;;4.9;;
68319;SDS011;55168;51.120;17.024;2023-04-03T01:30:00;6.9;;;4.9;;
68319;SDS011;55168;51.120;17.024;2023-04-03T01:31:08;6.9;;;4.9;;
68319;SDS011;55168;51.120;17.024;2023-04-03T01:32:01;7.8;;;5.0;;
68319;SDS011;55168;51.120;17.024;2023-04-03T01:33:00;7.8;;;5.0;;
68319;SDS011;55168;51.120;17.024;2023-04-03T01:34:00;7.8;;;5.0;;
68319;SDS011;55168;51.120;17.024;2023-04-03T01:35:00;7.8;;;5.0;;
68319;SDS011;55168;51.120;17.024;2023-04-03T01:36:00;7.8;;;5.0;;
68319;SDS011;55168;51.120;17.024;2023-04-03T01:37:00;8.4;;;4.7;;
68319;SDS011;55168;51.120;17.024;2023-04-03T01:38:00;8.4;;;4.7;;
68319;SDS011;55168;51.120;17.024;2023-04-03T01:39:00;8.4;;;4.7;;
68319;SDS011;55168;51.120;17.024;2023-04-03T01:40:00;8.4;;;4.7;;
68319;SDS011;55168;51.120;17.024;2023-04-03T01:41:00;8.4;;;4.7;;
68319;SDS011;55168;51.120;17.024;2023-04-03T01:42:00;7.9;;;4.7;;
68319;SDS011;55168;51.120;17.024;2023-04-03T01:43:00;7.9;;;4.7;;
68319;SDS011;55168;51.120;17.024;2023-04-03T01:44:00;7.9;;;4.7;;
68319;SDS011;55168;51.120;17.024;2023-04-03T01:45:00;7.9;;;4.7;;
68319;SDS011;55168;51.120;17.024;2023-04-03T01:46:00;7.9;;;4.7;;
68319;SDS011;55168;51.120;17.024;2023-04-03T01:47:00;8.6;;;4.5;;
68319;SDS011;55168;51.120;17.024;2023-04-03T01:48:00;8.6;;;4.5;;
68319;SDS011;55168;51.120;17.024;2023-04-03T01:49:00;8.6;;;4.5;;
68319;SDS011;55168;51.120;17.024;2023-04-03T01:50:00;8.6;;;4.5;;
68319;SDS011;55168;51.120;17.024;2023-04-03T01:51:00;8.6;;;4.5;;
68319;SDS011;55168;51.120;17.024;2023-04-03T01:52:00;6.6;;;4.8;;
68319;SDS011;55168;51.120;17.024;2023-04-03T01:53:00;6.6;;;4.8;;
68319;SDS011;55168;51.120;17.024;2023-04-03T01:54:00;6.6;;;4.8;;
68319;SDS011;55168;51.120;17.024;2023-04-03T01:55:00;6.6;;;4.8;;
68319;SDS011;55168;51.120;17.024;2023-04-03T01:56:00;6.6;;;4.8;;
68319;SDS011;55168;51.120;17.024;2023-04-03T01:57:00;7.9;;;4.5;;
68319;SDS011;55168;51.120;17.024;2023-04-03T01:58:00;7.9;;;4.5;;
68319;SDS011;55168;51.120;17.024;2023-04-03T01:59:00;7.9;;;4.5;;
68319;SDS011;55168;51.120;17.024;2023-04-03T02:00:00;7.9;;;4.5;;
68319;SDS011;55168;51.120;17.024;2023-04-03T02:01:00;7.9;;;4.5;;
68319;SDS011;55168;51.120;17.024;2023-04-03T02:02:00;8.4;;;4.8;;
68319;SDS011;55168;51.120;17.024;2023-04-03T02:03:00;8.4;;;4.8;;
68319;SDS011;55168;51.120;17.024;2023-04-03T02:04:00;8.4;;;4.8;;
68319;SDS011;55168;51.120;17.024;2023-04-03T02:05:00;8.4;;;4.8;;
68319;SDS011;55168;51.120;17.024;2023-04-03T02:06:00;8.4;;;4.8;;
68319;SDS011;55168;51.120;17.024;2023-04-03T02:07:00;7.8;;;5.4;;
68319;SDS011;55168;51.120;17.024;2023-04-03T02:08:00;7.8;;;5.4;;
68319;SDS011;55168;51.120;17.024;2023-04-03T02:09:00;7.8;;;5.4;;
68319;SDS011;55168;51.120;17.024;2023-04-03T02:10:00;7.8;;;5.4;;
68319;SDS011;55168;51.120;17.024;2023-04-03T02:11:00;7.8;;;5.4;;
68319;SDS011;55168;51.120;17.024;2023-04-03T02:12:00;7.5;;;5.0;;
68319;SDS011;55168;51.120;17.024;2023-04-03T02:13:00;7.5;;;5.0;;
68319;SDS011;55168;51.120;17.024;2023-04-03T02:14:00;7.5;;;5.0;;
68319;SDS011;55168;51.120;17.024;2023-04-03T02:15:00;7.5;;;5.0;;
68319;SDS011;55168;51.120;17.024;2023-04-03T02:16:05;8.4;;;4.9;;
68319;SDS011;55168;51.120;17.024;2023-04-03T02:17:01;8.4;;;4.9;;
68319;SDS011;55168;51.120;17.024;2023-04-03T02:18:00;8.4;;;4.9;;
68319;SDS011;55168;51.120;17.024;2023-04-03T02:19:00;8.4;;;4.9;;
68319;SDS011;55168;51.120;17.024;2023-04-03T02:20:00;8.4;;;4.9;;
68319;SDS011;55168;51.120;17.024;2023-04-03T02:21:00;8.5;;;5.3;;
68319;SDS011;55168;51.120;17.024;2023-04-03T02:22:01;8.5;;;5.3;;
68319;SDS011;55168;51.120;17.024;2023-04-03T02:23:00;8.5;;;5.3;;
68319;SDS011;55168;51.120;17.024;2023-04-03T02:24:00;8.5;;;5.3;;
68319;SDS011;55168;51.120;17.024;2023-04-03T02:25:00;8.5;;;5.3;;
68319;SDS011;55168;51.120;17.024;2023-04-03T02:26:04;9.0;;;5.1;;
68319;SDS011;55168;51.120;17.024;2023-04-03T02:27:00;9.0;;;5.1;;
68319;SDS011;55168;51.120;17.024;2023-04-03T02:28:00;9.0;;;5.1;;
68319;SDS011;55168;51.120;17.024;2023-04-03T02:29:00;9.0;;;5.1;;
68319;SDS011;55168;51.120;17.024;2023-04-03T02:30:00;9.0;;;5.1;;
68319;SDS011;55168;51.120;17.024;2023-04-03T02:31:00;6.8;;;4.9;;
68319;SDS011;55168;51.120;17.024;2023-04-03T02:32:00;6.8;;;4.9;;
68319;SDS011;55168;51.120;17.024;2023-04-03T02:33:00;6.8;;;4.9;;
68319;SDS011;55168;51.120;17.024;2023-04-03T02:34:00;6.8;;;4.9;;
68319;SDS011;55168;51.120;17.024;2023-04-03T02:35:00;6.8;;;4.9;;
68319;SDS011;55168;51.120;17.024;2023-04-03T02:36:00;10.8;;;5.5;;
68319;SDS011;55168;51.120;17.024;2023-04-03T02:37:00;10.8;;;5.5;;
68319;SDS011;55168;51.120;17.024;2023-04-03T02:38:00;10.8;;;5.5;;
68319;SDS011;55168;51.120;17.024;2023-04-03T02:39:00;10.8;;;5.5;;
68319;SDS011;55168;51.120;17.024;2023-04-03T02:40:00;10.8;;;5.5;;
68319;SDS011;55168;51.120;17.024;2023-04-03T02:41:01;11.1;;;5.6;;
68319;SDS011;55168;51.120;17.024;2023-04-03T02:42:00;11.1;;;5.6;;
68319;SDS011;55168;51.120;17.024;2023-04-03T02:43:00;11.1;;;5.6;;
68319;SDS011;55168;51.120;17.024;2023-04-03T02:44:00;11.1;;;5.6;;
68319;SDS011;55168;51.120;17.024;2023-04-03T02:45:00;11.1;;;5.6;;
68319;SDS011;55168;51.120;17.024;2023-04-03T02:46:00;7.2;;;5.1;;
68319;SDS011;55168;51.120;17.024;2023-04-03T02:47:00;7.2;;;5.1;;
68319;SDS011;55168;51.120;17.024;2023-04-03T02:48:00;7.2;;;5.1;;
68319;SDS011;55168;51.120;17.024;2023-04-03T02:49:00;7.2;;;5.1;;
68319;SDS011;55168;51.120;17.024;2023-04-03T02:50:00;7.2;;;5.1;;
68319;SDS011;55168;51.120;17.024;2023-04-03T02:51:00;10.0;;;5.5;;
68319;SDS011;55168;51.120;17.024;2023-04-03T02:52:00;10.0;;;5.5;;
68319;SDS011;55168;51.120;17.024;2023-04-03T02:53:00;10.0;;;5.5;;
68319;SDS011;55168;51.120;17.024;2023-04-03T02:54:00;10.0;;;5.5;;
68319;SDS011;55168;51.120;17.024;2023-04-03T02:55:00;10.0;;;5.5;;
68319;SDS011;55168;51.120;17.024;2023-04-03T02:56:00;8.9;;;5.7;;
68319;SDS011;55168;51.120;17.024;2023-04-03T02:57:00;8.9;;;5.7;;
68319;SDS011;55168;51.120;17.024;2023-04-03T02:58:00;8.9;;;5.7;;
68319;SDS011;55168;51.120;17.024;2023-04-03T02:59:00;8.9;;;5.7;;
68319;SDS011;55168;51.120;17.024;2023-04-03T03:00:00;8.9;;;5.7;;
68319;SDS011;55168;51.120;17.024;2023-04-03T03:01:00;9.6;;;5.2;;
68319;SDS011;55168;51.120;17.024;2023-04-03T03:02:00;9.6;;;5.2;;
68319;SDS011;55168;51.120;17.024;2023-04-03T03:03:00;9.6;;;5.2;;
68319;SDS011;55168;51.120;17.024;2023-04-03T03:04:00;9.6;;;5.2;;
68319;SDS011;55168;51.120;17.024;2023-04-03T03:05:00;9.6;;;5.2;;
68319;SDS011;55168;51.120;17.024;2023-04-03T03:06:01;7.4;;;5.2;;
68319;SDS011;55168;51.120;17.024;2023-04-03T03:07:01;7.4;;;5.2;;
68319;SDS011;55168;51.120;17.024;2023-04-03T03:08:00;7.4;;;5.2;;
68319;SDS011;55168;51.120;17.024;2023-04-03T03:09:00;7.4;;;5.2;;
68319;SDS011;55168;51.120;17.024;2023-04-03T03:10:00;7.4;;;5.2;;
68319;SDS011;55168;51.120;17.024;2023-04-03T03:11:00;8.7;;;5.3;;
68319;SDS011;55168;51.120;17.024;2023-04-03T03:12:00;8.7;;;5.3;;
68319;SDS011;55168;51.120;17.024;2023-04-03T03:13:00;8.7;;;5.3;;
68319;SDS011;55168;51.120;17.024;2023-04-03T03:14:00;8.7;;;5.3;;
68319;SDS011;55168;51.120;17.024;2023-04-03T03:15:00;8.7;;;5.3;;
68319;SDS011;55168;51.120;17.024;2023-04-03T03:16:01;8.2;;;5.4;;
68319;SDS011;55168;51.120;17.024;2023-04-03T03:17:00;8.2;;;5.4;;
68319;SDS011;55168;51.120;17.024;2023-04-03T03:18:00;8.2;;;5.4;;
68319;SDS011;55168;51.120;17.024;2023-04-03T03:19:00;8.2;;;5.4;;
68319;SDS011;55168;51.120;17.024;2023-04-03T03:20:00;8.2;;;5.4;;
68319;SDS011;55168;51.120;17.024;2023-04-03T03:21:01;8.3;;;5.2;;
68319;SDS011;55168;51.120;17.024;2023-04-03T03:22:00;8.3;;;5.2;;
68319;SDS011;55168;51.120;17.024;2023-04-03T03:23:00;8.3;;;5.2;;
68319;SDS011;55168;51.120;17.024;2023-04-03T03:24:00;8.3;;;5.2;;
68319;SDS011;55168;51.120;17.024;2023-04-03T03:25:00;8.3;;;5.2;;
68319;SDS011;55168;51.120;17.024;2023-04-03T03:26:04;8.6;;;5.0;;
68319;SDS011;55168;51.120;17.024;2023-04-03T03:27:00;8.6;;;5.0;;
68319;SDS011;55168;51.120;17.024;2023-04-03T03:28:00;8.6;;;5.0;;
68319;SDS011;55168;51.120;17.024;2023-04-03T03:29:00;8.6;;;5.0;;
68319;SDS011;55168;51.120;17.024;2023-04-03T03:30:00;8.6;;;5.0;;
68319;SDS011;55168;51.120;17.024;2023-04-03T03:31:00;7.5;;;5.6;;
68319;SDS011;55168;51.120;17.024;2023-04-03T03:32:00;7.5;;;5.6;;
68319;SDS011;55168;51.120;17.024;2023-04-03T03:33:00;7.5;;;5.6;;
68319;SDS011;55168;51.120;17.024;2023-04-03T03:34:00;7.5;;;5.6;;
68319;SDS011;55168;51.120;17.024;2023-04-03T03:35:00;7.5;;;5.6;;
68319;SDS011;55168;51.120;17.024;2023-04-03T03:36:00;10.0;;;5.2;;
68319;SDS011;55168;51.120;17.024;2023-04-03T03:37:00;10.0;;;5.2;;
68319;SDS011;55168;51.120;17.024;2023-04-03T03:38:00;10.0;;;5.2;;
68319;SDS011;55168;51.120;17.024;2023-04-03T03:39:00;10.0;;;5.2;;
68319;SDS011;55168;51.120;17.024;2023-04-03T03:40:00;10.0;;;5.2;;
68319;SDS011;55168;51.120;17.024;2023-04-03T03:41:00;9.6;;;5.6;;
68319;SDS011;55168;51.120;17.024;2023-04-03T03:42:00;9.6;;;5.6;;
68319;SDS011;55168;51.120;17.024;2023-04-03T03:43:00;9.6;;;5.6;;
68319;SDS011;55168;51.120;17.024;2023-04-03T03:44:00;9.6;;;5.6;;
68319;SDS011;55168;51.120;17.024;2023-04-03T03:45:00;9.6;;;5.6;;
68319;SDS011;55168;51.120;17.024;2023-04-03T03:46:00;9.8;;;5.5;;
68319;SDS011;55168;51.120;17.024;2023-04-03T03:47:00;9.8;;;5.5;;
68319;SDS011;55168;51.120;17.024;2023-04-03T03:48:00;9.8;;;5.5;;
68319;SDS011;55168;51.120;17.024;2023-04-03T03:49:00;9.8;;;5.5;;
68319;SDS011;55168;51.120;17.024;2023-04-03T03:50:00;9.8;;;5.5;;
68319;SDS011;55168;51.120;17.024;2023-04-03T03:51:00;8.6;;;5.9;;
68319;SDS011;55168;51.120;17.024;2023-04-03T03:52:00;8.6;;;5.9;;
68319;SDS011;55168;51.120;17.024;2023-04-03T03:53:00;8.6;;;5.9;;
68319;SDS011;55168;51.120;17.024;2023-04-03T03:54:00;8.6;;;5.9;;
68319;SDS011;55168;51.120;17.024;2023-04-03T03:55:00;8.6;;;5.9;;
68319;SDS011;55168;51.120;17.024;2023-04-03T03:56:00;9.5;;;5.7;;
68319;SDS011;55168;51.120;17.024;2023-04-03T03:57:00;9.5;;;5.7;;
68319;SDS011;55168;51.120;17.024;2023-04-03T03:58:00;9.5;;;5.7;;
68319;SDS011;55168;51.120;17.024;2023-04-03T03:59:00;9.5;;;5.7;;
68319;SDS011;55168;51.120;17.024;2023-04-03T04:00:00;9.5;;;5.7;;
68319;SDS011;55168;51.120;17.024;2023-04-03T04:01:01;10.2;;;5.8;;
68319;SDS011;55168;51.120;17.024;2023-04-03T04:02:00;10.2;;;5.8;;
68319;SDS011;55168;51.120;17.024;2023-04-03T04:03:00;10.2;;;5.8;;
68319;SDS011;55168;51.120;17.024;2023-04-03T04:04:00;10.2;;;5.8;;
68319;SDS011;55168;51.120;17.024;2023-04-03T04:05:00;10.2;;;5.8;;
68319;SDS011;55168;51.120;17.024;2023-04-03T04:06:00;7.8;;;5.9;;
68319;SDS011;55168;51.120;17.024;2023-04-03T04:07:00;7.8;;;5.9;;
68319;SDS011;55168;51.120;17.024;2023-04-03T04:08:00;7.8;;;5.9;;
68319;SDS011;55168;51.120;17.024;2023-04-03T04:09:01;7.8;;;5.9;;
68319;SDS011;55168;51.120;17.024;2023-04-03T04:10:00;7.8;;;5.9;;
68319;SDS011;55168;51.120;17.024;2023-04-03T04:11:00;17.2;;;7.0;;
68319;SDS011;55168;51.120;17.024;2023-04-03T04:12:00;17.2;;;7.0;;
68319;SDS011;55168;51.120;17.024;2023-04-03T04:13:00;17.2;;;7.0;;
68319;SDS011;55168;51.120;17.024;2023-04-03T04:14:00;17.2;;;7.0;;
68319;SDS011;55168;51.120;17.024;2023-04-03T04:15:00;17.2;;;7.0;;
68319;SDS011;55168;51.120;17.024;2023-04-03T04:16:00;10.6;;;6.3;;
68319;SDS011;55168;51.120;17.024;2023-04-03T04:17:00;10.6;;;6.3;;
68319;SDS011;55168;51.120;17.024;2023-04-03T04:18:00;10.6;;;6.3;;
68319;SDS011;55168;51.120;17.024;2023-04-03T04:19:00;10.6;;;6.3;;
68319;SDS011;55168;51.120;17.024;2023-04-03T04:20:01;10.6;;;6.3;;
68319;SDS011;55168;51.120;17.024;2023-04-03T04:21:00;12.3;;;6.6;;
68319;SDS011;55168;51.120;17.024;2023-04-03T04:22:00;12.3;;;6.6;;
68319;SDS011;55168;51.120;17.024;2023-04-03T04:23:00;12.3;;;6.6;;
68319;SDS011;55168;51.120;17.024;2023-04-03T04:24:00;12.3;;;6.6;;
68319;SDS011;55168;51.120;17.024;2023-04-03T04:25:00;12.3;;;6.6;;
68319;SDS011;55168;51.120;17.024;2023-04-03T04:26:00;8.0;;;5.8;;
68319;SDS011;55168;51.120;17.024;2023-04-03T04:27:00;8.0;;;5.8;;
68319;SDS011;55168;51.120;17.024;2023-04-03T04:28:00;8.0;;;5.8;;
68319;SDS011;55168;51.120;17.024;2023-04-03T04:29:00;8.0;;;5.8;;
68319;SDS011;55168;51.120;17.024;2023-04-03T04:30:00;8.0;;;5.8;;
68319;SDS011;55168;51.120;17.024;2023-04-03T04:31:00;9.4;;;6.4;;
68319;SDS011;55168;51.120;17.024;2023-04-03T04:32:00;9.4;;;6.4;;
68319;SDS011;55168;51.120;17.024;2023-04-03T04:33:00;9.4;;;6.4;;
68319;SDS011;55168;51.120;17.024;2023-04-03T04:34:00;9.4;;;6.4;;
68319;SDS011;55168;51.120;17.024;2023-04-03T04:35:00;9.4;;;6.4;;
68319;SDS011;55168;51.120;17.024;2023-04-03T04:36:00;11.6;;;6.4;;
68319;SDS011;55168;51.120;17.024;2023-04-03T04:37:00;11.6;;;6.4;;
68319;SDS011;55168;51.120;17.024;2023-04-03T04:38:00;11.6;;;6.4;;
68319;SDS011;55168;51.120;17.024;2023-04-03T04:39:00;11.6;;;6.4;;
68319;SDS011;55168;51.120;17.024;2023-04-03T04:40:00;11.6;;;6.4;;
68319;SDS011;55168;51.120;17.024;2023-04-03T04:41:00;10.6;;;5.8;;
68319;SDS011;55168;51.120;17.024;2023-04-03T04:42:00;10.6;;;5.8;;
68319;SDS011;55168;51.120;17.024;2023-04-03T04:43:00;10.6;;;5.8;;
68319;SDS011;55168;51.120;17.024;2023-04-03T04:44:00;10.6;;;5.8;;
68319;SDS011;55168;51.120;17.024;2023-04-03T04:45:00;10.6;;;5.8;;
68319;SDS011;55168;51.120;17.024;2023-04-03T04:46:02;10.6;;;5.9;;
68319;SDS011;55168;51.120;17.024;2023-04-03T04:47:00;10.6;;;5.9;;
68319;SDS011;55168;51.120;17.024;2023-04-03T04:48:00;10.6;;;5.9;;
68319;SDS011;55168;51.120;17.024;2023-04-03T04:49:00;10.6;;;5.9;;
68319;SDS011;55168;51.120;17.024;2023-04-03T04:50:00;10.6;;;5.9;;
68319;SDS011;55168;51.120;17.024;2023-04-03T04:51:00;9.4;;;5.5;;
68319;SDS011;55168;51.120;17.024;2023-04-03T04:52:00;9.4;;;5.5;;
68319;SDS011;55168;51.120;17.024;2023-04-03T04:53:00;9.4;;;5.5;;
68319;SDS011;55168;51.120;17.024;2023-04-03T04:54:00;9.4;;;5.5;;
68319;SDS011;55168;51.120;17.024;2023-04-03T04:55:00;9.4;;;5.5;;
68319;SDS011;55168;51.120;17.024;2023-04-03T04:56:00;10.8;;;5.5;;
68319;SDS011;55168;51.120;17.024;2023-04-03T04:57:00;10.8;;;5.5;;
68319;SDS011;55168;51.120;17.024;2023-04-03T04:58:00;10.8;;;5.5;;
68319;SDS011;55168;51.120;17.024;2023-04-03T04:59:00;10.8;;;5.5;;
68319;SDS011;55168;51.120;17.024;2023-04-03T05:00:00;10.8;;;5.5;;
68319;SDS011;55168;51.120;17.024;2023-04-03T05:01:01;8.2;;;5.3;;
68319;SDS011;55168;51.120;17.024;2023-04-03T05:02:00;8.2;;;5.3;;
68319;SDS011;55168;51.120;17.024;2023-04-03T05:03:00;8.2;;;5.3;;
68319;SDS011;55168;51.120;17.024;2023-04-03T05:04:00;8.2;;;5.3;;
68319;SDS011;55168;51.120;17.024;2023-04-03T05:05:00;8.2;;;5.3;;
68319;SDS011;55168;51.120;17.024;2023-04-03T05:06:00;10.1;;;5.5;;
68319;SDS011;55168;51.120;17.024;2023-04-03T05:07:00;10.1;;;5.5;;
68319;SDS011;55168;51.120;17.024;2023-04-03T05:08:00;10.1;;;5.5;;
68319;SDS011;55168;51.120;17.024;2023-04-03T05:09:00;10.1;;;5.5;;
68319;SDS011;55168;51.120;17.024;2023-04-03T05:10:00;10.1;;;5.5;;
68319;SDS011;55168;51.120;17.024;2023-04-03T05:11:00;7.7;;;4.9;;
68319;SDS011;55168;51.120;17.024;2023-04-03T05:12:00;7.7;;;4.9;;
68319;SDS011;55168;51.120;17.024;2023-04-03T05:13:01;7.7;;;4.9;;
68319;SDS011;55168;51.120;17.024;2023-04-03T05:14:00;7.7;;;4.9;;
68319;SDS011;55168;51.120;17.024;2023-04-03T05:15:00;7.7;;;4.9;;
68319;SDS011;55168;51.120;17.024;2023-04-03T05:16:00;7.7;;;4.5;;
68319;SDS011;55168;51.120;17.024;2023-04-03T05:17:00;7.7;;;4.5;;
68319;SDS011;55168;51.120;17.024;2023-04-03T05:18:00;7.7;;;4.5;;
68319;SDS011;55168;51.120;17.024;2023-04-03T05:19:00;7.7;;;4.5;;
68319;SDS011;55168;51.120;17.024;2023-04-03T05:20:00;7.7;;;4.5;;
68319;SDS011;55168;51.120;17.024;2023-04-03T05:21:00;9.6;;;5.2;;
68319;SDS011;55168;51.120;17.024;2023-04-03T05:22:00;9.6;;;5.2;;
68319;SDS011;55168;51.120;17.024;2023-04-03T05:23:00;9.6;;;5.2;;
68319;SDS011;55168;51.120;17.024;2023-04-03T05:24:00;9.6;;;5.2;;
68319;SDS011;55168;51.120;17.024;2023-04-03T05:25:00;9.6;;;5.2;;
68319;SDS011;55168;51.120;17.024;2023-04-03T05:26:00;13.8;;;5.4;;
68319;SDS011;55168;51.120;17.024;2023-04-03T05:27:00;13.8;;;5.4;;
68319;SDS011;55168;51.120;17.024;2023-04-03T05:28:00;13.8;;;5.4;;
68319;SDS011;55168;51.120;17.024;2023-04-03T05:29:00;13.8;;;5.4;;
68319;SDS011;55168;51.120;17.024;2023-04-03T05:30:00;13.8;;;5.4;;
68319;SDS011;55168;51.120;17.024;2023-04-03T05:31:00;8.8;;;5.1;;
68319;SDS011;55168;51.120;17.024;2023-04-03T05:32:00;8.8;;;5.1;;
68319;SDS011;55168;51.120;17.024;2023-04-03T05:33:00;8.8;;;5.1;;
68319;SDS011;55168;51.120;17.024;2023-04-03T05:34:00;8.8;;;5.1;;
68319;SDS011;55168;51.120;17.024;2023-04-03T05:35:00;8.8;;;5.1;;
68319;SDS011;55168;51.120;17.024;2023-04-03T05:36:02;8.2;;;5.0;;
68319;SDS011;55168;51.120;17.024;2023-04-03T05:37:00;8.2;;;5.0;;
68319;SDS011;55168;51.120;17.024;2023-04-03T05:38:00;8.2;;;5.0;;
68319;SDS011;55168;51.120;17.024;2023-04-03T05:39:00;8.2;;;5.0;;
68319;SDS011;55168;51.120;17.024;2023-04-03T05:40:00;8.2;;;5.0;;
68319;SDS011;55168;51.120;17.024;2023-04-03T05:41:00;6.9;;;4.8;;
68319;SDS011;55168;51.120;17.024;2023-04-03T05:42:00;6.9;;;4.8;;
68319;SDS011;55168;51.120;17.024;2023-04-03T05:43:00;6.9;;;4.8;;
68319;SDS011;55168;51.120;17.024;2023-04-03T05:44:00;6.9;;;4.8;;
68319;SDS011;55168;51.120;17.024;2023-04-03T05:45:00;6.9;;;4.8;;
68319;SDS011;55168;51.120;17.024;2023-04-03T05:46:00;9.1;;;4.4;;
68319;SDS011;55168;51.120;17.024;2023-04-03T05:47:00;9.1;;;4.4;;
68319;SDS011;55168;51.120;17.024;2023-04-03T05:48:00;9.1;;;4.4;;
68319;SDS011;55168;51.120;17.024;2023-04-03T05:49:00;9.1;;;4.4;;
68319;SDS011;55168;51.120;17.024;2023-04-03T05:50:00;9.1;;;4.4;;
68319;SDS011;55168;51.120;17.024;2023-04-03T05:51:00;7.9;;;5.1;;
68319;SDS011;55168;51.120;17.024;2023-04-03T05:52:01;7.9;;;5.1;;
68319;SDS011;55168;51.120;17.024;2023-04-03T05:53:02;7.9;;;5.1;;
68319;SDS011;55168;51.120;17.024;2023-04-03T05:54:06;7.9;;;5.1;;
68319;SDS011;55168;51.120;17.024;2023-04-03T05:55:00;7.9;;;5.1;;
68319;SDS011;55168;51.120;17.024;2023-04-03T05:56:00;5.8;;;4.2;;
68319;SDS011;55168;51.120;17.024;2023-04-03T05:57:00;5.8;;;4.2;;
68319;SDS011;55168;51.120;17.024;2023-04-03T05:58:00;5.8;;;4.2;;
68319;SDS011;55168;51.120;17.024;2023-04-03T05:59:00;5.8;;;4.2;;
68319;SDS011;55168;51.120;17.024;2023-04-03T06:00:00;5.8;;;4.2;;
68319;SDS011;55168;51.120;17.024;2023-04-03T06:01:00;9.5;;;5.3;;
68319;SDS011;55168;51.120;17.024;2023-04-03T06:02:00;9.5;;;5.3;;
68319;SDS011;55168;51.120;17.024;2023-04-03T06:03:00;9.5;;;5.3;;
68319;SDS011;55168;51.120;17.024;2023-04-03T06:04:00;9.5;;;5.3;;
68319;SDS011;55168;51.120;17.024;2023-04-03T06:05:00;9.5;;;5.3;;
68319;SDS011;55168;51.120;17.024;2023-04-03T06:06:02;8.3;;;5.4;;
68319;SDS011;55168;51.120;17.024;2023-04-03T06:07:00;8.3;;;5.4;;
68319;SDS011;55168;51.120;17.024;2023-04-03T06:08:00;8.3;;;5.4;;
68319;SDS011;55168;51.120;17.024;2023-04-03T06:09:00;8.3;;;5.4;;
68319;SDS011;55168;51.120;17.024;2023-04-03T06:10:00;8.3;;;5.4;;
68319;SDS011;55168;51.120;17.024;2023-04-03T06:11:00;6.4;;;4.7;;